createdAt,value
2019-04-27T00:01:16.915Z,10.50
2019-04-27T00:04:04.863Z,10.40
2019-04-27T00:06:46.398Z,10.60
2019-04-27T00:09:23.205Z,10.50
2019-04-27T00:12:05.571Z,10.20
2019-04-27T00:14:34.549Z,10.00
2019-04-27T00:17:20.994Z,9.90
2019-04-27T00:20:05.809Z,10.00
2019-04-27T00:22:36.791Z,10.30
2019-04-27T00:25:06.453Z,10.30
2019-04-27T00:27:35.793Z,10.20
2019-04-27T00:30:05.914Z,10.20
2019-04-27T00:32:35.265Z,10.50
2019-04-27T00:35:04.885Z,10.40
2019-04-27T00:37:38.535Z,10.40
2019-04-27T00:40:15.843Z,10.50
2019-04-27T00:42:45.183Z,10.30
2019-04-27T00:45:15.306Z,10.40
2019-04-27T00:47:56.841Z,10.30
2019-04-27T00:50:15.824Z,10.20
2019-04-27T00:52:45.155Z,10.20
2019-04-27T00:55:14.544Z,10.40
2019-04-27T00:57:54.513Z,10.30
2019-04-27T01:00:40.268Z,10.20
2019-04-27T01:03:16.972Z,10.10
2019-04-27T01:05:46.525Z,10.20
2019-04-27T01:08:15.928Z,10.10
2019-04-27T01:10:45.264Z,10.00
2019-04-27T01:13:14.584Z,10.00
2019-04-27T01:15:43.925Z,9.80
2019-04-27T01:18:15.512Z,9.70
2019-04-27T01:20:44.373Z,9.70
2019-04-27T01:23:13.773Z,9.90
2019-04-27T01:25:53.600Z,9.90
2019-04-27T01:28:33.478Z,10.00
2019-04-27T01:31:04.439Z,10.00
2019-04-27T01:33:33.772Z,9.90
2019-04-27T01:36:03.180Z,9.80
2019-04-27T01:38:32.580Z,9.70
2019-04-27T01:41:01.955Z,9.80
2019-04-27T01:43:31.291Z,9.90
2019-04-27T01:46:01.003Z,9.70
2019-04-27T01:48:30.735Z,9.80
2019-04-27T01:51:00.145Z,9.70
2019-04-27T01:53:30.441Z,9.70
2019-04-27T01:55:59.900Z,9.50
2019-04-27T01:58:29.425Z,9.30
2019-04-27T02:01:09.654Z,9.50
2019-04-27T02:03:40.822Z,9.40
2019-04-27T02:06:10.194Z,9.50
2019-04-27T02:08:40.389Z,9.60
2019-04-27T02:11:11.003Z,9.60
2019-04-27T02:13:40.435Z,9.70
2019-04-27T02:16:09.917Z,9.50
2019-04-27T02:18:40.055Z,9.60
2019-04-27T02:21:09.641Z,9.60
2019-04-27T02:23:39.357Z,9.60
2019-04-27T02:26:08.908Z,9.60
2019-04-27T02:28:39.895Z,9.50
2019-04-27T02:31:13.816Z,9.50
2019-04-27T02:33:44.793Z,9.20
2019-04-27T02:36:15.136Z,9.20
2019-04-27T02:38:44.785Z,9.30
2019-04-27T02:41:14.118Z,9.30
2019-04-27T02:43:49.773Z,9.10
2019-04-27T02:46:20.159Z,9.30
2019-04-27T02:48:58.808Z,9.30
2019-04-27T02:51:42.992Z,9.30
2019-04-27T02:54:12.690Z,9.30
2019-04-27T02:56:42.123Z,9.30
2019-04-27T02:59:12.172Z,9.20
2019-04-27T03:01:46.546Z,9.10
2019-04-27T03:04:14.365Z,9.10
2019-04-27T03:06:43.670Z,9.10
2019-04-27T03:09:13.234Z,9.20
2019-04-27T03:11:42.540Z,9.10
2019-04-27T03:14:36.189Z,9.10
2019-04-27T03:17:14.753Z,9.20
2019-04-27T03:19:55.013Z,9.00
2019-04-27T03:22:25.953Z,9.10
2019-04-27T03:25:02.910Z,9.10
2019-04-27T03:27:34.341Z,9.00
2019-04-27T03:30:04.469Z,9.00
2019-04-27T03:32:33.795Z,8.90
2019-04-27T03:35:03.999Z,9.00
2019-04-27T03:37:33.432Z,8.90
2019-04-27T03:40:03.230Z,8.90
2019-04-27T03:42:37.158Z,8.70
2019-04-27T03:45:06.852Z,8.70
2019-04-27T03:47:36.186Z,8.40
2019-04-27T03:50:10.382Z,8.50
2019-04-27T03:52:41.627Z,8.70
2019-04-27T03:55:30.433Z,8.60
2019-04-27T03:58:17.236Z,8.40
2019-04-27T04:00:46.686Z,8.40
2019-04-27T04:03:16.071Z,8.40
2019-04-27T04:05:45.403Z,8.40
2019-04-27T04:08:14.780Z,8.50
2019-04-27T04:11:04.090Z,8.50
2019-04-27T04:13:39.669Z,8.70
2019-04-27T04:16:13.740Z,8.70
2019-04-27T04:19:01.251Z,8.80
2019-04-27T04:21:30.688Z,8.90
2019-04-27T04:24:01.321Z,8.80
2019-04-27T04:26:32.725Z,8.60
2019-04-27T04:29:01.821Z,8.60
2019-04-27T04:31:33.169Z,8.40
2019-04-27T04:34:02.275Z,8.60
2019-04-27T04:36:31.658Z,8.40
2019-04-27T04:39:01.039Z,8.50
2019-04-27T04:41:40.526Z,8.50
2019-04-27T04:44:13.628Z,8.40
2019-04-27T04:46:49.927Z,8.70
2019-04-27T04:49:19.394Z,8.60
2019-04-27T04:51:50.399Z,8.60
2019-04-27T04:54:24.194Z,8.60
2019-04-27T04:56:50.886Z,8.70
2019-04-27T04:59:20.342Z,9.00
2019-04-27T05:01:50.097Z,9.10
2019-04-27T05:04:19.511Z,9.20
2019-04-27T05:06:50.595Z,9.10
2019-04-27T05:09:19.904Z,9.20
2019-04-27T05:11:49.236Z,9.20
2019-04-27T05:14:19.941Z,9.20
2019-04-27T05:16:49.326Z,9.20
2019-04-27T05:19:18.919Z,9.30
2019-04-27T05:21:49.157Z,9.30
2019-04-27T05:24:19.281Z,9.40
2019-04-27T05:26:48.850Z,9.30
2019-04-27T05:29:19.127Z,9.50
2019-04-27T05:31:49.107Z,9.60
2019-04-27T05:34:19.742Z,9.70
2019-04-27T05:36:52.463Z,9.50
2019-04-27T05:39:24.841Z,9.60
2019-04-27T05:41:51.460Z,9.50
2019-04-27T05:44:22.409Z,9.60
2019-04-27T05:47:13.167Z,9.80
2019-04-27T05:49:44.611Z,9.90
2019-04-27T05:52:29.759Z,10.10
2019-04-27T05:54:59.774Z,10.10
2019-04-27T05:57:31.523Z,10.20
2019-04-27T06:00:02.082Z,10.40
2019-04-27T06:02:31.634Z,10.50
2019-04-27T06:05:00.934Z,10.80
2019-04-27T06:07:30.345Z,11.00
2019-04-27T06:10:00.045Z,11.10
2019-04-27T06:12:29.955Z,11.10
2019-04-27T06:15:00.164Z,11.10
2019-04-27T06:17:30.225Z,11.10
2019-04-27T06:19:59.841Z,11.10
2019-04-27T06:22:29.507Z,11.10
2019-04-27T06:25:00.207Z,11.40
2019-04-27T06:27:30.740Z,11.40
2019-04-27T06:30:00.520Z,11.30
2019-04-27T06:32:29.854Z,11.40
2019-04-27T06:34:59.391Z,11.50
2019-04-27T06:37:29.323Z,11.40
2019-04-27T06:39:59.660Z,11.40
2019-04-27T06:42:29.856Z,11.50
2019-04-27T06:45:00.020Z,11.50
2019-04-27T06:47:29.986Z,11.50
2019-04-27T06:49:59.326Z,11.60
2019-04-27T06:52:29.280Z,11.70
2019-04-27T06:55:00.596Z,11.60
2019-04-27T06:57:30.155Z,11.70
2019-04-27T06:59:59.572Z,11.80
2019-04-27T07:02:29.231Z,11.90
2019-04-27T07:04:59.264Z,12.00
2019-04-27T07:07:29.531Z,12.00
2019-04-27T07:09:59.636Z,12.00
2019-04-27T07:12:29.085Z,12.10
2019-04-27T07:14:59.175Z,12.20
2019-04-27T07:17:29.112Z,12.20
2019-04-27T07:19:59.407Z,12.20
2019-04-27T07:22:29.826Z,12.30
2019-04-27T07:24:59.493Z,12.40
2019-04-27T07:27:29.256Z,12.60
2019-04-27T07:30:00.780Z,12.70
2019-04-27T07:32:29.749Z,12.80
2019-04-27T07:34:59.112Z,12.90
2019-04-27T07:37:29.442Z,13.10
2019-04-27T07:39:59.286Z,13.10
2019-04-27T07:42:37.118Z,13.10
2019-04-27T07:45:11.867Z,13.20
2019-04-27T07:47:42.822Z,13.10
2019-04-27T07:50:12.406Z,13.10
2019-04-27T07:52:41.714Z,13.20
2019-04-27T07:55:11.190Z,13.20
2019-04-27T07:57:40.582Z,13.30
2019-04-27T08:00:10.419Z,13.20
2019-04-27T08:02:39.837Z,13.30
2019-04-27T08:05:09.475Z,13.30
2019-04-27T08:07:39.271Z,13.40
2019-04-27T08:10:09.688Z,13.50
2019-04-27T08:12:39.255Z,13.50
2019-04-27T08:15:09.047Z,13.60
2019-04-27T08:17:42.520Z,13.60
2019-04-27T08:20:10.351Z,13.60
2019-04-27T08:22:39.787Z,13.60
2019-04-27T08:25:09.672Z,13.70
2019-04-27T08:27:43.297Z,13.70
2019-04-27T08:30:17.187Z,13.80
2019-04-27T08:32:50.940Z,13.80
2019-04-27T08:35:20.272Z,14.00
2019-04-27T08:37:49.744Z,14.00
2019-04-27T08:40:19.846Z,14.00
2019-04-27T08:42:51.177Z,14.00
2019-04-27T08:45:20.228Z,14.10
2019-04-27T08:47:50.002Z,14.10
2019-04-27T08:50:19.544Z,14.10
2019-04-27T08:52:50.144Z,14.20
2019-04-27T08:55:19.779Z,14.00
2019-04-27T08:57:49.237Z,13.80
2019-04-27T09:00:19.513Z,13.80
2019-04-27T09:02:50.221Z,13.60
2019-04-27T09:05:26.028Z,13.50
2019-04-27T09:08:14.671Z,13.50
2019-04-27T09:10:45.658Z,13.40
2019-04-27T09:13:19.521Z,13.40
2019-04-27T09:15:53.540Z,13.40
2019-04-27T09:18:24.581Z,13.40
2019-04-27T09:21:01.544Z,13.40
2019-04-27T09:23:30.919Z,13.40
2019-04-27T09:26:00.258Z,13.40
2019-04-27T09:28:29.629Z,13.30
2019-04-27T09:30:59.056Z,13.20
2019-04-27T09:33:28.380Z,13.10
2019-04-27T09:35:57.732Z,12.90
2019-04-27T09:38:29.682Z,12.90
2019-04-27T09:40:58.294Z,12.80
2019-04-27T09:43:27.605Z,12.80
2019-04-27T09:45:56.949Z,12.80
2019-04-27T09:48:26.277Z,12.80
2019-04-27T09:50:56.098Z,12.90
2019-04-27T09:53:27.037Z,12.90
2019-04-27T09:55:56.595Z,13.00
2019-04-27T09:58:25.920Z,13.00
2019-04-27T10:00:56.826Z,13.00
2019-04-27T10:03:26.707Z,12.90
2019-04-27T10:05:57.052Z,12.70
2019-04-27T10:08:26.695Z,12.60
2019-04-27T10:10:56.652Z,12.50
2019-04-27T10:13:27.596Z,12.50
2019-04-27T10:15:57.058Z,12.50
2019-04-27T10:18:26.653Z,12.60
2019-04-27T10:20:59.658Z,12.60
2019-04-27T10:23:27.021Z,12.70
2019-04-27T10:25:56.350Z,12.70
2019-04-27T10:28:25.678Z,12.60
2019-04-27T10:30:55.767Z,12.20
2019-04-27T10:33:26.700Z,11.90
2019-04-27T10:35:56.522Z,11.70
2019-04-27T10:38:26.163Z,11.60
2019-04-27T10:40:55.630Z,11.70
2019-04-27T10:43:25.774Z,11.90
2019-04-27T10:45:56.471Z,12.00
2019-04-27T10:48:26.504Z,12.10
2019-04-27T10:50:56.006Z,12.30
2019-04-27T10:53:26.875Z,12.30
2019-04-27T10:55:56.654Z,12.30
2019-04-27T10:58:27.306Z,12.40
2019-04-27T11:01:01.118Z,12.40
2019-04-27T11:03:48.412Z,12.40
2019-04-27T11:06:22.084Z,12.50
2019-04-27T11:08:51.459Z,12.60
2019-04-27T11:11:20.805Z,12.60
2019-04-27T11:13:50.150Z,12.60
2019-04-27T11:16:19.554Z,12.60
2019-04-27T11:18:48.943Z,12.60
2019-04-27T11:21:18.295Z,12.60
2019-04-27T11:23:47.635Z,12.60
2019-04-27T11:26:16.966Z,12.80
2019-04-27T11:28:46.408Z,12.80
2019-04-27T11:31:17.291Z,12.80
2019-04-27T11:33:46.668Z,12.80
2019-04-27T11:36:17.701Z,12.90
2019-04-27T11:38:56.531Z,12.90
2019-04-27T11:41:26.309Z,13.00
2019-04-27T11:43:56.589Z,13.10
2019-04-27T11:46:26.709Z,13.10
2019-04-27T11:48:58.302Z,13.10
2019-04-27T11:51:27.264Z,13.10
2019-04-27T11:53:56.608Z,13.10
2019-04-27T11:56:27.457Z,13.10
2019-04-27T11:58:56.946Z,13.20
2019-04-27T12:01:27.026Z,13.30
2019-04-27T12:03:56.465Z,13.30
2019-04-27T12:06:25.950Z,13.50
2019-04-27T12:08:55.253Z,13.50
2019-04-27T12:11:26.107Z,13.60
2019-04-27T12:13:56.173Z,13.70
2019-04-27T12:16:26.220Z,13.60
2019-04-27T12:18:56.387Z,13.70
2019-04-27T12:21:25.769Z,13.80
2019-04-27T12:23:55.124Z,13.70
2019-04-27T12:26:26.063Z,13.70
2019-04-27T12:28:56.140Z,13.70
2019-04-27T12:31:35.992Z,13.70
2019-04-27T12:34:06.136Z,13.80
2019-04-27T12:36:35.952Z,13.90
2019-04-27T12:39:11.788Z,14.00
2019-04-27T12:41:41.242Z,13.90
2019-04-27T12:44:10.718Z,14.00
2019-04-27T12:46:40.206Z,14.10
2019-04-27T12:49:09.892Z,14.30
2019-04-27T12:51:39.205Z,14.70
2019-04-27T12:54:10.189Z,15.10
2019-04-27T12:56:47.152Z,15.20
2019-04-27T12:59:18.130Z,14.90
2019-04-27T13:01:47.447Z,14.60
2019-04-27T13:04:16.791Z,14.30
2019-04-27T13:06:47.022Z,14.10
2019-04-27T13:09:17.327Z,13.90
2019-04-27T13:11:46.716Z,13.90
2019-04-27T13:14:16.415Z,14.00
2019-04-27T13:16:47.475Z,14.00
2019-04-27T13:19:17.069Z,14.00
2019-04-27T13:21:46.990Z,14.00
2019-04-27T13:24:16.406Z,14.10
2019-04-27T13:26:45.763Z,14.30
2019-04-27T13:29:16.648Z,14.60
2019-04-27T13:31:46.103Z,15.00
2019-04-27T13:34:15.941Z,15.50
2019-04-27T13:36:45.799Z,15.60
2019-04-27T13:39:15.817Z,15.50
2019-04-27T13:41:46.280Z,15.30
2019-04-27T13:44:16.096Z,15.20
2019-04-27T13:47:02.241Z,15.10
2019-04-27T13:49:33.230Z,15.00
2019-04-27T13:52:09.680Z,15.00
2019-04-27T13:54:39.140Z,14.80
2019-04-27T13:57:08.545Z,14.70
2019-04-27T13:59:37.934Z,14.50
2019-04-27T14:02:07.472Z,14.40
2019-04-27T14:04:36.805Z,14.50
2019-04-27T14:07:06.204Z,14.60
2019-04-27T14:09:35.548Z,14.70
2019-04-27T14:12:09.457Z,14.70
2019-04-27T14:14:39.095Z,14.70
2019-04-27T14:17:09.817Z,14.70
2019-04-27T14:19:39.519Z,14.70
2019-04-27T14:22:09.242Z,14.60
2019-04-27T14:24:41.813Z,14.60
2019-04-27T14:27:11.945Z,14.50
2019-04-27T14:29:41.411Z,14.30
2019-04-27T14:32:11.168Z,14.20
2019-04-27T14:34:40.529Z,14.20
2019-04-27T14:37:09.856Z,14.20
2019-04-27T14:39:40.830Z,14.20
2019-04-27T14:42:10.318Z,14.20
2019-04-27T14:44:39.667Z,14.00
2019-04-27T14:47:09.123Z,13.90
2019-04-27T14:49:39.097Z,13.80
2019-04-27T14:52:09.651Z,13.50
2019-04-27T14:54:46.028Z,12.10
2019-04-27T14:57:10.045Z,10.50
2019-04-27T14:59:39.449Z,9.40
2019-04-27T15:02:08.837Z,9.20
2019-04-27T15:04:40.222Z,9.10
2019-04-27T15:07:09.242Z,9.00
2019-04-27T15:09:38.551Z,9.20
2019-04-27T15:12:08.016Z,9.20
2019-04-27T15:14:39.034Z,9.20
2019-04-27T15:17:10.389Z,9.30
2019-04-27T15:19:41.141Z,9.20
2019-04-27T15:22:19.014Z,9.20
2019-04-27T15:24:47.149Z,9.20
2019-04-27T15:27:15.843Z,9.20
2019-04-27T15:29:45.149Z,9.20
2019-04-27T15:32:16.125Z,9.30
2019-04-27T15:34:48.218Z,9.30
2019-04-27T15:37:22.065Z,9.40
2019-04-27T15:40:12.460Z,9.60
2019-04-27T15:42:49.031Z,9.60
2019-04-27T15:45:15.849Z,9.70
2019-04-27T15:47:47.708Z,9.70
2019-04-27T15:50:15.508Z,9.90
2019-04-27T15:52:44.869Z,10.00
2019-04-27T15:55:31.430Z,9.90
2019-04-27T15:57:47.125Z,9.60
2019-04-27T16:00:21.278Z,9.50
2019-04-27T16:02:52.785Z,9.80
2019-04-27T16:05:23.589Z,10.10
2019-04-27T16:07:53.673Z,10.40
2019-04-27T16:10:23.134Z,10.40
2019-04-27T16:13:05.735Z,10.50
2019-04-27T16:15:23.529Z,10.50
2019-04-27T16:17:55.885Z,10.50
2019-04-27T16:20:30.225Z,10.50
2019-04-27T16:22:56.812Z,10.40
2019-04-27T16:25:29.964Z,10.30
2019-04-27T16:27:57.888Z,10.40
2019-04-27T16:30:28.780Z,10.40
2019-04-27T16:32:59.609Z,10.30
2019-04-27T16:35:28.886Z,10.40
2019-04-27T16:38:02.285Z,10.50
2019-04-27T16:40:31.619Z,10.50
2019-04-27T16:43:00.969Z,10.50
2019-04-27T16:45:30.513Z,10.50
2019-04-27T16:48:02.077Z,10.50
2019-04-27T16:50:30.881Z,10.60
2019-04-27T16:53:01.045Z,10.60
2019-04-27T16:55:34.199Z,10.60
2019-04-27T16:58:01.627Z,10.60
2019-04-27T17:00:31.258Z,10.60
2019-04-27T17:03:02.836Z,10.70
2019-04-27T17:05:34.738Z,10.70
2019-04-27T17:08:02.847Z,10.60
2019-04-27T17:10:32.422Z,10.60
2019-04-27T17:13:06.295Z,10.60
2019-04-27T17:15:53.851Z,10.60
2019-04-27T17:18:30.896Z,10.50
2019-04-27T17:21:05.593Z,10.50
2019-04-27T17:23:31.776Z,10.60
2019-04-27T17:26:06.208Z,10.60
2019-04-27T17:28:46.288Z,10.60
2019-04-27T17:31:21.095Z,10.70
2019-04-27T17:33:50.158Z,10.70
2019-04-27T17:36:19.871Z,10.70
2019-04-27T17:38:51.144Z,10.70
2019-04-27T17:41:20.750Z,10.70
2019-04-27T17:43:50.231Z,10.70
2019-04-27T17:46:19.932Z,10.70
2019-04-27T17:48:50.619Z,10.70
2019-04-27T17:51:19.942Z,10.70
2019-04-27T17:53:50.035Z,10.50
2019-04-27T17:56:19.471Z,10.40
2019-04-27T17:58:48.836Z,9.50
2019-04-27T18:01:19.109Z,8.90
2019-04-27T18:03:58.476Z,8.50
2019-04-27T18:06:24.076Z,8.20
2019-04-27T18:08:55.031Z,8.10
2019-04-27T18:11:22.355Z,8.10
2019-04-27T18:13:55.838Z,8.10
2019-04-27T18:16:23.677Z,8.10
2019-04-27T18:19:00.081Z,8.10
2019-04-27T18:21:31.013Z,8.10
2019-04-27T18:24:04.433Z,8.00
2019-04-27T18:26:48.351Z,8.20
2019-04-27T18:29:08.152Z,8.20
2019-04-27T18:31:38.311Z,8.30
2019-04-27T18:34:14.856Z,8.30
2019-04-27T18:36:43.916Z,8.20
2019-04-27T18:39:13.618Z,8.20
2019-04-27T18:41:49.173Z,8.20
2019-04-27T18:44:12.209Z,8.20
2019-04-27T18:46:41.583Z,8.20
2019-04-27T18:49:12.656Z,8.30
2019-04-27T18:52:04.498Z,8.40
2019-04-27T18:54:33.098Z,8.40
2019-04-27T18:57:04.812Z,8.40
2019-04-27T18:59:33.372Z,8.50
2019-04-27T19:02:02.679Z,8.50
2019-04-27T19:04:32.009Z,8.60
2019-04-27T19:07:01.315Z,8.60
2019-04-27T19:09:30.649Z,8.60
2019-04-27T19:12:02.129Z,8.70
2019-04-27T19:14:31.450Z,8.60
2019-04-27T19:17:00.760Z,8.60
2019-04-27T19:19:30.100Z,8.70
2019-04-27T19:21:59.416Z,8.60
2019-04-27T19:24:29.130Z,8.40
2019-04-27T19:27:15.042Z,8.30
2019-04-27T19:29:35.464Z,8.10
2019-04-27T19:32:04.856Z,7.70
2019-04-27T19:34:34.199Z,7.20
2019-04-27T19:37:04.054Z,6.80
2019-04-27T19:39:33.513Z,6.70
2019-04-27T19:42:03.873Z,6.60
2019-04-27T19:44:33.214Z,6.60
2019-04-27T19:47:05.619Z,6.70
2019-04-27T19:49:33.579Z,6.90
2019-04-27T19:52:02.913Z,7.00
2019-04-27T19:54:32.236Z,7.00
2019-04-27T19:57:01.709Z,6.80
2019-04-27T19:59:32.656Z,6.80
2019-04-27T20:02:03.637Z,6.70
2019-04-27T20:04:34.823Z,6.60
2019-04-27T20:07:04.448Z,6.60
2019-04-27T20:09:35.419Z,6.50
2019-04-27T20:12:05.670Z,6.60
2019-04-27T20:14:55.529Z,6.70
2019-04-27T20:17:31.096Z,6.70
2019-04-27T20:20:01.483Z,7.10
2019-04-27T20:22:31.038Z,7.20
2019-04-27T20:25:01.925Z,7.00
2019-04-27T20:27:45.082Z,7.10
2019-04-27T20:30:03.204Z,7.10
2019-04-27T20:32:32.787Z,7.20
2019-04-27T20:35:02.171Z,7.40
2019-04-27T20:37:31.549Z,7.20
2019-04-27T20:40:01.649Z,7.30
2019-04-27T20:42:31.614Z,7.20
2019-04-27T20:45:01.956Z,7.20
2019-04-27T20:47:31.921Z,6.90
2019-04-27T20:50:01.221Z,7.00
2019-04-27T20:52:35.239Z,7.20
2019-04-27T20:55:06.594Z,7.30
2019-04-27T20:57:35.927Z,7.40
2019-04-27T21:00:11.804Z,7.30
2019-04-27T21:02:42.918Z,7.40
2019-04-27T21:05:31.039Z,7.30
2019-04-27T21:08:06.977Z,7.30
2019-04-27T21:10:35.785Z,7.20
2019-04-27T21:13:05.344Z,7.20
2019-04-27T21:15:34.654Z,7.30
2019-04-27T21:18:04.064Z,7.30
2019-04-27T21:20:33.374Z,7.50
2019-04-27T21:23:02.698Z,7.40
2019-04-27T21:25:33.607Z,7.40
2019-04-27T21:28:15.330Z,7.40
2019-04-27T21:30:34.217Z,7.40
2019-04-27T21:33:03.556Z,7.40
2019-04-27T21:35:33.935Z,7.40
2019-04-27T21:38:04.783Z,7.30
2019-04-27T21:40:34.335Z,7.30
2019-04-27T21:43:03.657Z,7.30
2019-04-27T21:45:33.053Z,7.20
2019-04-27T21:48:02.379Z,7.30
2019-04-27T21:50:31.690Z,7.30
2019-04-27T21:53:05.358Z,7.20
2019-04-27T21:55:36.377Z,7.20
2019-04-27T21:58:05.894Z,7.20
2019-04-27T22:00:42.970Z,7.10
2019-04-27T22:03:16.833Z,7.20
2019-04-27T22:05:46.357Z,7.20
2019-04-27T22:08:15.761Z,7.20
2019-04-27T22:10:45.070Z,7.20
2019-04-27T22:13:14.468Z,7.10
2019-04-27T22:15:43.770Z,7.10
2019-04-27T22:18:13.173Z,7.10
2019-04-27T22:20:42.786Z,7.10
2019-04-27T22:23:22.959Z,7.10
2019-04-27T22:25:52.035Z,7.10
2019-04-27T22:28:22.434Z,7.10
2019-04-27T22:30:51.775Z,7.20
2019-04-27T22:33:21.463Z,7.10
2019-04-27T22:35:51.784Z,7.10
2019-04-27T22:38:21.216Z,7.20
2019-04-27T22:40:52.166Z,7.10
2019-04-27T22:43:41.442Z,7.20
2019-04-27T22:46:12.367Z,7.00
2019-04-27T22:48:41.693Z,7.10
2019-04-27T22:51:11.710Z,7.10
2019-04-27T22:53:41.166Z,7.20
2019-04-27T22:56:17.770Z,7.10
2019-04-27T22:58:58.603Z,7.20
2019-04-27T23:01:27.193Z,7.20
2019-04-27T23:04:08.888Z,7.20
2019-04-27T23:06:38.267Z,7.20
2019-04-27T23:09:08.009Z,7.10
2019-04-27T23:11:37.486Z,7.10
2019-04-27T23:14:06.885Z,7.00
2019-04-27T23:16:37.837Z,7.00
2019-04-27T23:19:07.180Z,6.90
2019-04-27T23:21:36.486Z,6.90
2019-04-27T23:24:05.828Z,6.80
2019-04-27T23:26:35.128Z,6.90
2019-04-27T23:29:13.091Z,6.90
2019-04-27T23:31:40.842Z,7.00
2019-04-27T23:34:11.736Z,7.00
2019-04-27T23:36:42.440Z,6.90
2019-04-27T23:39:12.191Z,7.00
2019-04-27T23:41:41.573Z,7.00
2019-04-27T23:44:10.902Z,7.00
2019-04-27T23:46:40.235Z,7.00
2019-04-27T23:49:09.562Z,6.90
2019-04-27T23:51:40.513Z,6.80
2019-04-27T23:54:11.569Z,6.90
2019-04-27T23:56:42.053Z,6.90
2019-04-27T23:59:23.744Z,6.90
